createdAt,value
2023-03-20T00:01:46.630Z,3.40
2023-03-20T00:04:49.542Z,3.23
2023-03-20T00:07:52.728Z,2.83
2023-03-20T00:10:56.886Z,3.23
2023-03-20T00:14:02.707Z,2.87
2023-03-20T00:17:11.425Z,3.43
2023-03-20T00:20:16.260Z,3.40
2023-03-20T00:23:19.105Z,3.27
2023-03-20T00:26:26.571Z,3.50
2023-03-20T00:29:32.208Z,3.07
2023-03-20T00:32:35.039Z,2.77
2023-03-20T00:35:38.312Z,3.67
2023-03-20T00:38:41.291Z,3.73
2023-03-20T00:41:47.640Z,2.50
2023-03-20T00:44:53.923Z,2.73
2023-03-20T00:47:58.539Z,2.80
2023-03-20T00:51:01.353Z,2.83
2023-03-20T00:54:06.965Z,2.20
2023-03-20T00:57:16.049Z,2.30
2023-03-20T01:00:35.889Z,2.20
2023-03-20T01:03:40.789Z,2.07
2023-03-20T01:06:44.116Z,2.67
2023-03-20T01:09:47.291Z,2.33
2023-03-20T01:12:51.647Z,4.03
2023-03-20T01:15:56.496Z,2.40
2023-03-20T01:18:59.309Z,2.20
2023-03-20T01:22:02.719Z,1.80
2023-03-20T01:25:06.175Z,2.90
2023-03-20T01:28:18.312Z,2.67
2023-03-20T01:31:21.411Z,1.87
2023-03-20T01:34:24.316Z,1.90
2023-03-20T01:37:28.740Z,1.90
2023-03-20T01:40:38.702Z,2.07
2023-03-20T01:43:43.232Z,2.00
2023-03-20T01:46:46.532Z,1.90
2023-03-20T01:50:19.131Z,1.77
2023-03-20T01:53:26.150Z,1.60
2023-03-20T01:56:32.499Z,2.03
2023-03-20T01:59:39.097Z,1.70
2023-03-20T02:02:42.266Z,1.67
2023-03-20T02:05:46.098Z,2.07
2023-03-20T02:08:50.714Z,1.80
2023-03-20T02:11:54.764Z,1.80
2023-03-20T02:14:58.979Z,1.40
2023-03-20T02:18:01.822Z,2.07
2023-03-20T02:21:50.213Z,1.80
2023-03-20T02:25:16.372Z,1.60
2023-03-20T02:28:53.758Z,2.13
2023-03-20T02:32:35.582Z,1.60
2023-03-20T02:36:27.153Z,1.60
2023-03-20T02:39:48.052Z,1.43
2023-03-20T02:43:01.223Z,1.77
2023-03-20T02:46:12.784Z,1.40
2023-03-20T02:49:25.995Z,1.60
2023-03-20T02:52:38.360Z,1.30
2023-03-20T02:55:47.208Z,1.53
2023-03-20T02:58:57.835Z,1.47
2023-03-20T03:02:06.197Z,1.63
2023-03-20T03:05:14.316Z,1.57
2023-03-20T03:08:22.379Z,1.47
2023-03-20T03:11:26.903Z,1.20
2023-03-20T03:14:36.729Z,1.20
2023-03-20T03:17:41.270Z,1.20
2023-03-20T03:20:45.896Z,1.23
2023-03-20T03:23:50.307Z,2.63
2023-03-20T03:26:54.724Z,1.90
2023-03-20T03:29:59.517Z,1.43
2023-03-20T03:33:15.414Z,1.13
2023-03-20T03:36:26.963Z,1.43
2023-03-20T03:39:38.254Z,1.33
2023-03-20T03:42:51.444Z,1.33
2023-03-20T03:45:59.728Z,2.03
2023-03-20T03:49:05.456Z,0.93
2023-03-20T03:52:12.868Z,0.90
2023-03-20T03:55:20.245Z,0.97
2023-03-20T03:58:27.900Z,0.73
2023-03-20T04:01:35.216Z,1.03
2023-03-20T04:04:43.832Z,1.40
2023-03-20T04:07:47.318Z,0.97
2023-03-20T04:10:50.268Z,1.10
2023-03-20T04:13:55.006Z,1.40
2023-03-20T04:16:57.775Z,1.50
2023-03-20T04:20:00.951Z,1.63
2023-03-20T04:23:05.645Z,1.17
2023-03-20T04:26:09.019Z,1.23
2023-03-20T04:29:13.351Z,1.00
2023-03-20T04:32:16.409Z,1.23
2023-03-20T04:35:19.464Z,1.30
2023-03-20T04:38:23.070Z,1.10
2023-03-20T04:41:26.502Z,1.10
2023-03-20T04:44:30.827Z,1.83
2023-03-20T04:47:33.863Z,1.83
2023-03-20T04:50:36.715Z,1.87
2023-03-20T04:53:39.506Z,1.67
2023-03-20T04:56:42.284Z,2.10
2023-03-20T04:59:46.468Z,2.13
2023-03-20T05:02:49.479Z,2.40
2023-03-20T05:05:52.311Z,2.27
2023-03-20T05:08:55.135Z,2.50
2023-03-20T05:11:57.906Z,2.87
2023-03-20T05:15:02.175Z,2.70
2023-03-20T05:18:05.292Z,2.67
2023-03-20T05:21:09.111Z,2.33
2023-03-20T05:24:11.918Z,2.90
2023-03-20T05:27:14.752Z,2.40
2023-03-20T05:30:19.701Z,2.70
2023-03-20T05:33:22.690Z,2.70
2023-03-20T05:36:25.751Z,3.63
2023-03-20T05:39:28.553Z,3.73
2023-03-20T05:42:31.508Z,3.57
2023-03-20T05:45:35.987Z,5.77
2023-03-20T05:48:39.073Z,4.73
2023-03-20T05:51:41.863Z,4.23
2023-03-20T05:54:44.660Z,4.60
2023-03-20T05:57:47.674Z,4.03
2023-03-20T06:00:51.871Z,4.53
2023-03-20T06:03:54.932Z,4.03
2023-03-20T06:06:57.720Z,4.90
2023-03-20T06:10:00.813Z,5.33
2023-03-20T06:13:03.673Z,6.77
2023-03-20T06:16:09.547Z,4.83
2023-03-20T06:19:12.425Z,4.87
2023-03-20T06:22:15.268Z,5.13
2023-03-20T06:25:18.430Z,4.70
2023-03-20T06:28:21.454Z,4.17
2023-03-20T06:31:25.736Z,6.23
2023-03-20T06:34:28.727Z,4.87
2023-03-20T06:37:31.523Z,4.80
2023-03-20T06:40:34.385Z,4.90
2023-03-20T06:43:37.241Z,4.43
2023-03-20T06:46:41.445Z,5.20
2023-03-20T06:49:46.010Z,5.27
2023-03-20T06:52:49.339Z,4.77
2023-03-20T06:55:52.512Z,5.33
2023-03-20T06:58:55.457Z,5.37
2023-03-20T07:02:00.165Z,5.37
2023-03-20T07:05:03.729Z,4.63
2023-03-20T07:08:07.341Z,5.87
2023-03-20T07:11:10.235Z,5.30
2023-03-20T07:14:13.038Z,6.10
2023-03-20T07:17:17.195Z,5.60
2023-03-20T07:20:20.702Z,6.03
2023-03-20T07:23:23.588Z,5.47
2023-03-20T07:26:27.061Z,5.43
2023-03-20T07:29:29.873Z,5.90
2023-03-20T07:32:37.260Z,5.00
2023-03-20T07:35:40.619Z,6.47
2023-03-20T07:38:43.518Z,6.03
2023-03-20T07:41:46.357Z,5.20
2023-03-20T07:44:49.166Z,5.13
2023-03-20T07:47:53.389Z,4.33
2023-03-20T07:50:56.242Z,4.90
2023-03-20T07:53:59.082Z,4.27
2023-03-20T07:57:01.886Z,5.00
2023-03-20T08:00:05.729Z,4.73
2023-03-20T08:03:10.988Z,4.80
2023-03-20T08:06:13.900Z,4.57
2023-03-20T08:09:16.813Z,5.43
2023-03-20T08:12:19.620Z,5.30
2023-03-20T08:15:22.584Z,4.77
2023-03-20T08:18:26.849Z,4.63
2023-03-20T08:21:29.958Z,3.87
2023-03-20T08:24:32.914Z,4.17
2023-03-20T08:27:36.080Z,4.20
2023-03-20T08:30:39.057Z,5.13
2023-03-20T08:33:43.377Z,3.50
2023-03-20T08:36:46.259Z,3.47
2023-03-20T08:39:49.277Z,2.87
2023-03-20T08:42:52.077Z,3.70
2023-03-20T08:45:55.738Z,4.47
2023-03-20T08:49:00.744Z,3.60
2023-03-20T08:52:03.850Z,4.50
2023-03-20T08:55:08.123Z,2.53
2023-03-20T08:58:11.050Z,4.63
2023-03-20T09:01:15.421Z,6.73
2023-03-20T09:04:19.838Z,8.20
2023-03-20T09:07:22.829Z,3.90
2023-03-20T09:10:25.810Z,3.07
2023-03-20T09:13:28.641Z,2.87
2023-03-20T09:16:31.561Z,3.33
2023-03-20T09:19:39.400Z,2.50
2023-03-20T09:22:43.772Z,2.27
2023-03-20T09:25:47.529Z,2.33
2023-03-20T09:28:50.619Z,2.23
2023-03-20T09:31:54.868Z,3.53
2023-03-20T09:34:59.195Z,11.03
2023-03-20T09:38:02.090Z,3.07
2023-03-20T09:41:07.481Z,3.93
2023-03-20T09:44:17.825Z,3.40
2023-03-20T09:47:27.446Z,1.80
2023-03-20T09:50:36.594Z,2.47
2023-03-20T09:53:43.401Z,3.57
2023-03-20T09:56:46.858Z,2.27
2023-03-20T09:59:54.434Z,2.60
2023-03-20T10:03:01.463Z,2.37
2023-03-20T10:06:08.756Z,1.53
2023-03-20T10:09:22.592Z,1.37
2023-03-20T10:12:38.369Z,0.70
2023-03-20T10:15:47.905Z,0.83
2023-03-20T10:18:58.212Z,1.27
2023-03-20T10:22:08.729Z,1.50
2023-03-20T10:25:23.425Z,1.20
2023-03-20T10:28:32.096Z,0.70
2023-03-20T10:31:44.206Z,1.23
2023-03-20T10:34:58.244Z,0.67
2023-03-20T10:38:14.960Z,0.70
2023-03-20T10:41:20.881Z,0.73
2023-03-20T10:44:30.995Z,1.37
2023-03-20T10:47:39.551Z,0.50
2023-03-20T10:50:47.269Z,0.83
2023-03-20T10:53:56.008Z,0.90
2023-03-20T10:57:01.193Z,1.10
2023-03-20T11:00:10.969Z,1.27
2023-03-20T11:03:22.399Z,3.10
2023-03-20T11:06:29.357Z,0.80
2023-03-20T11:09:34.001Z,0.80
2023-03-20T11:12:38.581Z,1.10
2023-03-20T11:15:41.496Z,0.40
2023-03-20T11:18:44.314Z,1.33
2023-03-20T11:21:49.869Z,1.27
2023-03-20T11:24:58.905Z,0.60
2023-03-20T11:28:20.264Z,0.53
2023-03-20T11:31:30.007Z,0.50
2023-03-20T11:34:34.174Z,0.50
2023-03-20T11:37:37.537Z,0.70
2023-03-20T11:40:41.943Z,0.60
2023-03-20T11:43:44.894Z,2.60
2023-03-20T11:46:56.364Z,0.90
2023-03-20T11:50:01.318Z,0.70
2023-03-20T11:53:05.737Z,0.77
2023-03-20T11:56:13.882Z,0.60
2023-03-20T11:59:18.820Z,0.70
2023-03-20T12:02:25.271Z,0.63
2023-03-20T12:05:31.945Z,1.77
2023-03-20T12:08:39.320Z,0.50
2023-03-20T12:11:48.880Z,0.70
2023-03-20T12:14:58.110Z,2.00
2023-03-20T12:18:04.069Z,1.10
2023-03-20T12:21:12.784Z,1.07
2023-03-20T12:24:23.124Z,1.40
2023-03-20T12:27:33.517Z,2.40
2023-03-20T12:30:51.252Z,4.10
2023-03-20T12:33:59.582Z,1.20
2023-03-20T12:37:02.599Z,1.30
2023-03-20T12:40:06.801Z,1.20
2023-03-20T12:43:16.178Z,0.70
2023-03-20T12:46:26.904Z,0.67
2023-03-20T12:49:42.984Z,0.80
2023-03-20T12:52:52.875Z,0.60
2023-03-20T12:56:04.803Z,0.97
2023-03-20T12:59:16.233Z,1.63
2023-03-20T13:02:34.948Z,1.20
2023-03-20T13:05:44.365Z,0.73
2023-03-20T13:09:06.708Z,0.80
2023-03-20T13:12:19.189Z,0.83
2023-03-20T13:15:32.504Z,1.67
2023-03-20T13:18:45.992Z,1.20
2023-03-20T13:21:57.340Z,1.00
2023-03-20T13:25:09.630Z,0.80
2023-03-20T13:28:22.760Z,0.80
2023-03-20T13:31:38.481Z,0.93
2023-03-20T13:34:58.450Z,2.97
2023-03-20T13:38:07.543Z,1.23
2023-03-20T13:41:11.948Z,0.90
2023-03-20T13:44:17.030Z,2.10
2023-03-20T13:47:25.689Z,0.70
2023-03-20T13:50:45.452Z,0.90
2023-03-20T13:54:05.518Z,0.90
2023-03-20T13:57:20.370Z,1.10
2023-03-20T14:00:30.071Z,0.70
2023-03-20T14:03:36.771Z,1.00
2023-03-20T14:06:50.761Z,0.77
2023-03-20T14:09:55.629Z,0.90
2023-03-20T14:13:01.344Z,1.37
2023-03-20T14:16:08.619Z,0.90
2023-03-20T14:19:19.269Z,0.97
2023-03-20T14:22:24.574Z,1.47
2023-03-20T14:25:29.048Z,1.03
2023-03-20T14:28:34.477Z,1.67
2023-03-20T14:31:38.655Z,1.43
2023-03-20T14:34:49.741Z,1.00
2023-03-20T14:38:12.834Z,0.80
2023-03-20T14:41:23.236Z,1.33
2023-03-20T14:44:37.006Z,2.30
2023-03-20T14:47:50.233Z,0.80
2023-03-20T14:51:12.670Z,3.67
2023-03-20T14:54:27.915Z,1.53
2023-03-20T14:57:48.686Z,1.17
2023-03-20T15:00:56.021Z,1.13
2023-03-20T15:04:02.295Z,0.70
2023-03-20T15:07:14.475Z,0.70
2023-03-20T15:10:19.705Z,1.27
2023-03-20T15:13:24.568Z,1.97
2023-03-20T15:16:29.793Z,0.50
2023-03-20T15:19:33.605Z,0.50
2023-03-20T15:22:48.880Z,0.53
2023-03-20T15:25:52.100Z,0.77
2023-03-20T15:29:01.504Z,0.50
2023-03-20T15:32:14.472Z,0.30
2023-03-20T15:35:20.966Z,0.97
2023-03-20T15:38:35.548Z,0.50
2023-03-20T15:41:39.188Z,0.30
2023-03-20T15:44:43.301Z,1.67
2023-03-20T15:47:46.124Z,0.70
2023-03-20T15:50:53.435Z,0.70
2023-03-20T15:53:58.043Z,0.73
2023-03-20T15:57:01.603Z,0.77
2023-03-20T16:00:07.379Z,0.50
2023-03-20T16:03:16.890Z,1.37
2023-03-20T16:06:21.747Z,0.60
2023-03-20T16:09:26.475Z,1.80
2023-03-20T16:12:29.289Z,0.50
2023-03-20T16:15:33.897Z,1.10
2023-03-20T16:18:39.203Z,2.60
2023-03-20T16:21:47.311Z,0.57
2023-03-20T16:24:55.565Z,1.07
2023-03-20T16:28:00.241Z,0.70
2023-03-20T16:31:10.304Z,0.77
2023-03-20T16:34:19.632Z,3.40
2023-03-20T16:37:27.206Z,1.13
2023-03-20T16:40:33.764Z,1.07
2023-03-20T16:43:39.780Z,0.97
2023-03-20T16:46:57.869Z,2.10
2023-03-20T16:50:22.321Z,1.00
2023-03-20T16:53:28.363Z,0.73
2023-03-20T16:56:36.835Z,3.70
2023-03-20T16:59:40.738Z,1.20
2023-03-20T17:02:43.534Z,0.87
2023-03-20T17:05:54.322Z,1.77
2023-03-20T17:09:01.550Z,0.90
2023-03-20T17:12:12.588Z,1.73
2023-03-20T17:15:16.448Z,1.13
2023-03-20T17:18:19.261Z,1.70
2023-03-20T17:21:22.071Z,1.87
2023-03-20T17:24:24.919Z,1.63
2023-03-20T17:27:30.504Z,1.30
2023-03-20T17:30:33.726Z,1.67
2023-03-20T17:33:36.751Z,1.93
2023-03-20T17:36:39.688Z,1.37
2023-03-20T17:39:43.236Z,2.10
2023-03-20T17:42:48.606Z,2.17
2023-03-20T17:45:51.459Z,2.17
2023-03-20T17:48:59.036Z,2.40
2023-03-20T17:52:01.836Z,2.87
2023-03-20T17:55:04.918Z,3.73
2023-03-20T17:58:14.646Z,3.83
2023-03-20T18:01:18.308Z,5.30
2023-03-20T18:04:21.456Z,4.13
2023-03-20T18:07:24.658Z,4.37
2023-03-20T18:10:31.936Z,6.47
2023-03-20T18:13:36.262Z,7.67
2023-03-20T18:16:39.061Z,4.13
2023-03-20T18:19:41.919Z,4.23
2023-03-20T18:22:44.681Z,8.33
2023-03-20T18:25:47.585Z,4.57
2023-03-20T18:28:54.321Z,4.67
2023-03-20T18:31:57.217Z,3.80
2023-03-20T18:35:00.083Z,3.20
2023-03-20T18:38:03.205Z,4.50
2023-03-20T18:41:06.197Z,3.93
2023-03-20T18:44:10.375Z,5.63
2023-03-20T18:47:13.212Z,5.60
2023-03-20T18:50:25.822Z,5.40
2023-03-20T18:53:29.406Z,4.10
2023-03-20T18:56:33.909Z,4.17
2023-03-20T18:59:38.085Z,3.53
2023-03-20T19:02:40.860Z,2.40
2023-03-20T19:05:44.269Z,2.60
2023-03-20T19:08:48.098Z,2.63
2023-03-20T19:11:51.082Z,5.37
2023-03-20T19:14:55.204Z,2.37
2023-03-20T19:17:58.721Z,2.83
2023-03-20T19:21:01.694Z,4.20
2023-03-20T19:24:06.834Z,3.40
2023-03-20T19:27:10.838Z,2.83
2023-03-20T19:30:24.694Z,2.90
2023-03-20T19:33:27.526Z,3.87
2023-03-20T19:36:32.498Z,4.17
2023-03-20T19:39:35.304Z,6.00
2023-03-20T19:42:59.100Z,5.77
2023-03-20T19:46:02.164Z,4.53
2023-03-20T19:49:06.037Z,5.03
2023-03-20T19:52:18.232Z,4.97
2023-03-20T19:55:21.259Z,5.80
2023-03-20T19:58:24.446Z,3.63
2023-03-20T20:01:28.660Z,4.53
2023-03-20T20:04:31.504Z,4.07
2023-03-20T20:08:12.722Z,4.07
2023-03-20T20:10:57.740Z,4.27
2023-03-20T20:14:09.665Z,3.73
2023-03-20T20:17:14.477Z,4.83
2023-03-20T20:20:24.734Z,3.50
2023-03-20T20:23:29.865Z,3.63
2023-03-20T20:26:38.857Z,3.40
2023-03-20T20:29:44.053Z,3.60
2023-03-20T20:32:48.429Z,5.40
2023-03-20T20:36:31.564Z,11.10
2023-03-20T20:39:14.461Z,15.43
2023-03-20T20:42:18.009Z,12.43
2023-03-20T20:45:23.098Z,8.57
2023-03-20T20:48:27.378Z,8.73
2023-03-20T20:51:31.707Z,10.60
2023-03-20T20:54:35.009Z,9.33
2023-03-20T20:57:37.892Z,5.77
2023-03-20T21:00:51.718Z,5.70
2023-03-20T21:03:57.308Z,7.73
2023-03-20T21:07:10.446Z,4.93
2023-03-20T21:10:16.562Z,7.10
2023-03-20T21:13:19.374Z,4.60
2023-03-20T21:16:23.183Z,6.43
2023-03-20T21:19:28.033Z,11.37
2023-03-20T21:22:30.846Z,14.63
2023-03-20T21:25:44.804Z,10.20
2023-03-20T21:28:49.760Z,10.67
2023-03-20T21:31:52.755Z,8.13
2023-03-20T21:34:56.948Z,6.43
2023-03-20T21:41:22.828Z,6.50
2023-03-20T21:45:08.939Z,4.77
2023-03-20T22:05:41.778Z,3.53
2023-03-20T22:22:23.235Z,4.13
2023-03-20T22:25:46.614Z,3.67
2023-03-20T22:32:47.811Z,3.93
2023-03-20T22:45:37.913Z,3.17
2023-03-20T22:48:46.482Z,4.03
2023-03-20T22:52:05.077Z,3.20
2023-03-20T22:55:12.650Z,3.07
2023-03-20T22:58:17.933Z,3.13
2023-03-20T23:01:21.058Z,3.63
2023-03-20T23:04:24.063Z,3.80
2023-03-20T23:07:27.000Z,3.57
2023-03-20T23:10:29.905Z,3.63
2023-03-20T23:13:34.566Z,3.13
2023-03-20T23:16:37.428Z,3.03
2023-03-20T23:19:47.754Z,3.17
2023-03-20T23:22:53.181Z,2.97
2023-03-20T23:26:03.820Z,3.27
2023-03-20T23:29:07.999Z,3.67
2023-03-20T23:32:10.821Z,3.60
2023-03-20T23:35:13.639Z,2.80
2023-03-20T23:38:16.448Z,2.57
2023-03-20T23:41:19.385Z,3.13
2023-03-20T23:44:23.866Z,2.87
2023-03-20T23:47:30.021Z,3.00
2023-03-20T23:50:51.862Z,2.67
2023-03-20T23:53:55.654Z,3.10
2023-03-20T23:56:58.431Z,2.70
